Time;durP1;ratioP1;P1;durP2;ratioP2;P2;SDS_P1;SDS_P2;PMS_P1;PMS_P2;Temp;Humidity;BMP_temperature;BMP_pressure;BME280_temperature;BME280_humidity;BME280_pressure;Samples;Min_cycle;Max_cycle;Signal;HPM_P1;HPM_P2
2021/11/06 00:00:27;117353480.00;391.18;65466024.00;96787.00;0.32;168.03;;;;;13.10;1.00;;;;;;2253197;61;1021;-83
2021/11/06 00:02:54;370058.00;1.23;638.34;88943.00;0.30;154.48;;;;;13.10;1.00;;;;;;2246609;61;962;-83
2021/11/06 00:05:22;428435.00;1.43;738.69;77749.00;0.26;135.15;;;;;13.20;1.00;;;;;;2256414;61;1045;-82
2021/11/06 00:07:50;401422.00;1.34;692.25;78088.00;0.26;135.73;;;;;13.70;1.00;;;;;;2253310;61;1425;-82
2021/11/06 00:10:18;357398.00;1.19;616.58;95138.00;0.32;165.18;;;;;13.60;1.00;;;;;;2248315;61;1006;-81
2021/11/06 00:12:47;195729.00;0.65;338.57;0.00;0.00;0.62;;;;;13.30;1.00;;;;;;2240093;62;1916;-83
2021/11/06 00:15:14;184960.00;0.62;320.03;0.00;0.00;0.62;;;;;13.00;1.00;;;;;;2233920;62;1018;-83
2021/11/06 00:17:42;161759.00;0.54;280.07;0.00;0.00;0.62;;;;;13.30;1.00;;;;;;2230761;62;1519;-83
2021/11/06 00:20:12;171458.00;0.57;296.78;0.00;0.00;0.62;;;;;13.40;1.00;;;;;;2234072;62;954;-85
2021/11/06 00:22:39;100592.00;0.34;174.59;0.00;0.00;0.62;;;;;13.60;1.00;;;;;;2237115;62;1056;-85
2021/11/06 00:25:10;157251.00;0.52;272.30;0.00;0.00;0.62;;;;;13.90;1.00;;;;;;2235052;61;983;-83
2021/11/06 00:30:07;151846.00;0.51;262.99;0.00;0.00;0.62;;;;;13.30;1.00;;;;;;2270902;61;1415;-84
2021/11/06 00:32:35;321238.00;1.07;554.43;0.00;0.00;0.62;;;;;13.40;1.00;;;;;;2264940;61;1907;-83
2021/11/06 00:37:29;226237.00;0.75;391.07;0.00;0.00;0.62;;;;;13.40;1.00;;;;;;2270594;61;1430;-84
2021/11/06 00:39:56;126708.00;0.42;219.65;0.00;0.00;0.62;;;;;13.40;1.00;;;;;;2260357;61;932;-84
2021/11/06 00:42:25;193456.00;0.64;334.66;0.00;0.00;0.62;;;;;13.00;1.00;;;;;;2260328;61;1015;-83
2021/11/06 00:47:19;118316872.00;394.39;67093084.00;75530.00;0.25;131.32;;;;;13.10;1.00;;;;;;2266797;61;1426;-83
2021/11/06 00:52:14;373588.00;1.25;644.40;88044.00;0.29;152.93;;;;;13.00;1.00;;;;;;2266704;61;1984;-83
2021/11/06 00:54:41;101033.00;0.34;175.35;0.00;0.00;0.62;;;;;13.10;1.00;;;;;;2257748;61;1025;-83
2021/11/06 00:57:08;191864.00;0.64;331.92;0.00;0.00;0.62;;;;;13.20;1.00;;;;;;2265011;61;1361;-85
2021/11/06 00:59:37;110217.00;0.37;191.20;0.00;0.00;0.62;;;;;13.10;1.00;;;;;;2264782;61;1007;-85
2021/11/06 01:02:04;180003.00;0.60;311.49;0.00;0.00;0.62;;;;;13.00;1.00;;;;;;2264395;61;975;-83
2021/11/06 01:04:31;142932.00;0.48;247.63;0.00;0.00;0.62;;;;;12.80;1.00;;;;;;2265107;61;1006;-84
2021/11/06 01:06:58;208043.00;0.69;359.77;0.00;0.00;0.62;;;;;12.70;1.00;;;;;;2260903;61;1330;-83
2021/11/06 01:09:25;150540.00;0.50;260.74;0.00;0.00;0.62;;;;;12.40;1.00;;;;;;2261143;61;967;-83
2021/11/06 01:14:20;187498.00;0.62;324.40;0.00;0.00;0.62;;;;;12.20;1.00;;;;;;2270653;61;1368;-85
2021/11/06 01:16:49;194914.00;0.65;337.17;0.00;0.00;0.62;;;;;11.80;1.00;;;;;;2267586;61;1395;-84
2021/11/06 01:19:16;231455.00;0.77;400.05;0.00;0.00;0.62;;;;;12.20;1.00;;;;;;2264590;61;998;-83
2021/11/06 01:21:43;285994.00;0.95;493.84;0.00;0.00;0.62;;;;;12.80;1.00;;;;;;2259853;61;964;-84
2021/11/06 01:24:10;281771.00;0.94;486.58;15348.00;0.05;27.21;;;;;12.80;1.00;;;;;;2250272;61;994;-84
2021/11/06 01:26:37;216819.00;0.72;374.87;0.00;0.00;0.62;;;;;12.50;1.00;;;;;;2250046;61;1286;-84
2021/11/06 01:29:04;205295.00;0.68;355.04;0.00;0.00;0.62;;;;;12.10;1.00;;;;;;2252244;61;945;-85
2021/11/06 01:31:31;203824.00;0.68;352.51;0.00;0.00;0.62;;;;;12.30;1.00;;;;;;2244231;61;1107;-84
2021/11/06 01:33:59;212241.00;0.71;366.99;0.00;0.00;0.62;;;;;12.70;1.00;;;;;;2234412;61;2014;-85
2021/11/06 01:36:26;222629.00;0.74;384.87;0.00;0.00;0.62;;;;;12.10;1.00;;;;;;2244477;61;1320;-82
2021/11/06 01:38:53;206804.00;0.69;357.63;0.00;0.00;0.62;;;;;11.50;1.00;;;;;;2235318;61;1009;-85
2021/11/06 01:48:44;212735.00;0.71;367.84;0.00;0.00;0.62;;;;;11.80;1.00;;;;;;2270465;61;1308;-84
2021/11/06 01:51:12;154523.00;0.52;267.60;0.00;0.00;0.62;;;;;11.90;1.00;;;;;;2264805;61;1025;-83
2021/11/06 01:53:39;419377.00;1.40;723.12;0.00;0.00;0.62;;;;;11.70;1.00;;;;;;2261694;61;1990;-82
2021/11/06 01:58:34;138506.00;0.46;240.00;0.00;0.00;0.62;;;;;12.10;1.00;;;;;;2266412;61;1380;-83
2021/11/06 02:01:02;214573.00;0.72;371.01;0.00;0.00;0.62;;;;;12.00;1.00;;;;;;2260896;61;1025;-82
2021/11/06 02:03:30;331264.00;1.10;571.66;0.00;0.00;0.62;;;;;11.70;1.00;;;;;;2260904;61;986;-85
2021/11/06 02:05:57;220907.00;0.74;381.90;0.00;0.00;0.62;;;;;11.70;1.00;;;;;;2259504;61;934;-88
2021/11/06 02:13:23;305049.00;1.02;526.60;0.00;0.00;0.62;;;;;12.30;1.00;;;;;;2270696;61;1957;-84
2021/11/06 02:15:50;456948.00;1.52;787.73;0.00;0.00;0.62;;;;;12.50;1.00;;;;;;2268398;61;910;-84
2021/11/06 02:18:17;441700.00;1.47;761.51;0.00;0.00;0.62;;;;;12.60;1.00;;;;;;2268192;61;1412;-85
2021/11/06 02:20:47;257042.00;0.86;444.06;0.00;0.00;0.62;;;;;12.70;1.00;;;;;;2268434;61;855;-84
2021/11/06 02:23:14;321048.00;1.07;554.10;0.00;0.00;0.62;;;;;12.60;1.00;;;;;;2268446;61;848;-83
2021/11/06 02:25:41;196717.00;0.66;340.27;0.00;0.00;0.62;;;;;12.70;1.00;;;;;;2264356;61;914;-83
2021/11/06 02:28:08;297841.00;0.99;514.21;0.00;0.00;0.62;;;;;12.90;1.00;;;;;;2257687;61;1413;-82
2021/11/06 02:33:03;205509.00;0.69;355.41;0.00;0.00;0.62;;;;;12.60;1.00;;;;;;2270609;61;1908;-85
2021/11/06 02:35:31;230893.00;0.77;399.09;0.00;0.00;0.62;;;;;12.60;1.00;;;;;;2268435;61;1013;-82
2021/11/06 02:43:03;278681.00;0.93;481.27;0.00;0.00;0.62;;;;;12.70;1.00;;;;;;2266772;61;1389;-83
2021/11/06 02:45:30;169565.00;0.57;293.52;0.00;0.00;0.62;;;;;12.50;1.00;;;;;;2261459;61;992;-84
2021/11/06 02:47:57;212903.00;0.71;368.13;0.00;0.00;0.62;;;;;12.30;1.00;;;;;;2261362;61;1344;-85
2021/11/06 02:52:52;190908.00;0.64;330.27;0.00;0.00;0.62;;;;;10.70;1.00;;;;;;2267448;61;1957;-84
2021/11/06 02:55:19;179128.00;0.60;309.99;0.00;0.00;0.62;;;;;10.60;1.00;;;;;;2256979;61;923;-86
2021/11/06 03:05:13;1335829.00;4.45;2337.83;132144.00;0.44;229.03;;;;;11.30;1.00;;;;;;2266901;61;1428;-84
2021/11/06 03:07:41;647079.00;2.16;1115.58;108784.00;0.36;188.73;;;;;10.60;1.00;;;;;;2258069;61;1431;-84
2021/11/06 03:15:04;255236.00;0.85;440.96;0.00;0.00;0.62;;;;;8.30;1.00;;;;;;2266621;61;1416;-84
2021/11/06 03:17:31;360680.00;1.20;622.22;0.00;0.00;0.62;;;;;7.70;1.00;;;;;;2265256;61;1408;-83
2021/11/06 03:19:58;366346.00;1.22;631.96;0.00;0.00;0.62;;;;;7.30;1.00;;;;;;2265096;61;858;-80
2021/11/06 03:22:26;353078.00;1.18;609.15;0.00;0.00;0.62;;;;;6.90;1.10;;;;;;2260670;61;931;-82
2021/11/06 03:24:53;325993.00;1.09;562.60;0.00;0.00;0.62;;;;;6.60;1.10;;;;;;2254015;61;994;-83
2021/11/06 03:27:21;212578.00;0.71;367.57;0.00;0.00;0.62;;;;;6.60;1.70;;;;;;2260629;61;1315;-83
2021/11/06 03:29:47;235266.00;0.78;406.61;0.00;0.00;0.62;;;;;6.60;1.70;;;;;;2254062;61;990;-82
2021/11/06 03:32:14;377772.00;1.26;651.60;0.00;0.00;0.62;;;;;6.70;2.40;;;;;;2260654;61;1938;-82
2021/11/06 03:34:41;283991.00;0.95;490.40;0.00;0.00;0.62;;;;;6.90;1.20;;;;;;2260577;61;969;-84
2021/11/06 03:37:09;351526.00;1.17;606.48;0.00;0.00;0.62;;;;;6.90;1.60;;;;;;2253858;61;1425;-80
2021/11/06 03:39:37;375914.00;1.25;648.40;0.00;0.00;0.62;;;;;6.90;1.40;;;;;;2254389;61;1148;-84
2021/11/06 03:42:05;311017.00;1.04;536.86;0.00;0.00;0.62;;;;;6.70;1.60;;;;;;2261284;61;990;-81
2021/11/06 03:47:00;333063.00;1.11;574.75;0.00;0.00;0.62;;;;;6.20;2.60;;;;;;2267165;61;2039;-82
2021/11/06 03:49:27;263472.00;0.88;455.12;0.00;0.00;0.62;;;;;6.20;4.70;;;;;;2261112;61;1011;-82
2021/11/06 03:51:54;388385.00;1.29;669.84;0.00;0.00;0.62;;;;;6.10;4.90;;;;;;2265287;61;1025;-83
2021/11/06 03:54:21;316608.00;1.06;546.47;0.00;0.00;0.62;;;;;6.10;5.20;;;;;;2264466;61;2017;-83
2021/11/06 03:56:49;330121.00;1.10;569.69;0.00;0.00;0.62;;;;;6.10;6.20;;;;;;2264518;61;1341;-82
2021/11/06 03:59:16;380248.00;1.27;655.85;0.00;0.00;0.62;;;;;6.00;6.20;;;;;;2261154;61;960;-81
2021/11/06 04:01:43;288933.00;0.96;498.90;0.00;0.00;0.62;;;;;6.10;7.20;;;;;;2265264;61;1042;-83
2021/11/06 04:04:10;294861.00;0.98;509.09;0.00;0.00;0.62;;;;;6.20;6.40;;;;;;2264506;61;966;-82
2021/11/06 04:06:37;288338.00;0.96;497.87;0.00;0.00;0.62;;;;;6.20;6.20;;;;;;2264490;61;1467;-82
2021/11/06 04:09:04;117551960.00;391.84;65799064.00;4609.00;0.02;8.61;;;;;6.30;6.10;;;;;;2261061;61;955;-82
2021/11/06 04:11:31;1538949.00;5.13;2716.63;120673.00;0.40;209.24;;;;;6.30;5.60;;;;;;2260466;61;958;-83
2021/11/06 04:14:00;1805110.00;6.02;3231.53;114005.00;0.38;197.74;;;;;6.20;6.50;;;;;;2253683;61;2001;-84
2021/11/06 04:16:27;1288431.00;4.29;2250.95;122917.00;0.41;213.11;;;;;6.40;5.80;;;;;;2260558;61;1309;-81
2021/11/06 04:18:53;1375660.00;4.59;2411.26;164995.00;0.55;285.64;;;;;6.80;5.40;;;;;;2260271;61;1057;-84
2021/11/06 04:21:20;1356851.00;4.52;2376.53;161181.00;0.54;279.07;;;;;6.60;4.90;;;;;;2253799;61;982;-83
2021/11/06 04:23:47;1267976.00;4.23;2213.62;214270.00;0.71;370.48;;;;;6.60;4.80;;;;;;2256812;61;981;-82
2021/11/06 04:26:14;1327142.00;4.42;2321.86;160445.00;0.53;277.81;;;;;6.30;6.10;;;;;;2260196;61;1381;-83
2021/11/06 04:28:41;1435033.00;4.78;2521.46;153381.00;0.51;265.63;;;;;6.20;6.50;;;;;;2257482;61;1005;-82
2021/11/06 04:31:10;1137409.00;3.79;1977.45;96350.00;0.32;167.27;;;;;5.90;7.20;;;;;;2265235;61;944;-84
2021/11/06 04:33:36;606097.00;2.02;1044.75;92122.00;0.31;159.97;;;;;5.80;7.60;;;;;;2265160;61;1923;-84
2021/11/06 04:36:04;434374.00;1.45;748.91;84045.00;0.28;146.02;;;;;6.00;7.80;;;;;;2261022;61;1041;-85
2021/11/06 04:38:30;562758.00;1.88;969.96;99460.00;0.33;172.64;;;;;5.90;7.90;;;;;;2264747;61;927;-85
2021/11/06 04:40:57;554396.00;1.85;955.54;92714.00;0.31;160.99;;;;;5.60;7.80;;;;;;2265031;61;1033;-84
2021/11/06 04:43:24;623767.00;2.08;1075.28;103879.00;0.35;180.27;;;;;5.60;8.20;;;;;;2261099;61;1012;-85
2021/11/06 04:45:51;609345.00;2.03;1050.36;87942.00;0.29;152.75;;;;;5.70;8.10;;;;;;2257875;61;957;-83
2021/11/06 04:48:19;596270.00;1.99;1027.78;88728.00;0.30;154.11;;;;;5.70;7.90;;;;;;2264930;61;1406;-84
2021/11/06 04:50:46;533954.00;1.78;920.30;96955.00;0.32;168.32;;;;;5.90;8.00;;;;;;2264732;61;1018;-81
2021/11/06 04:53:14;412555.00;1.38;711.39;0.00;0.00;0.62;;;;;6.30;7.10;;;;;;2260250;61;1907;-84
2021/11/06 04:55:41;275012.00;0.92;474.96;0.00;0.00;0.62;;;;;6.60;5.90;;;;;;2260174;61;930;-85
2021/11/06 05:00:37;1017259.00;3.39;1763.06;76185.00;0.25;132.45;;;;;6.60;5.40;;;;;;2270481;61;1400;-83
2021/11/06 05:03:04;1841153.00;6.14;3303.10;207130.00;0.69;358.20;;;;;6.60;5.70;;;;;;2261633;61;1003;-83
2021/11/06 05:05:33;2152758.00;7.18;3942.85;180498.00;0.60;312.35;;;;;6.70;5.40;;;;;;2261687;61;991;-83
2021/11/06 05:08:00;884348.00;2.95;1528.65;139249.00;0.46;241.28;;;;;6.60;4.90;;;;;;2264930;61;1422;-83
2021/11/06 05:10:27;570510.00;1.90;983.33;98115.00;0.33;170.32;;;;;6.50;5.10;;;;;;2268954;61;954;-83
2021/11/06 05:12:54;330685.00;1.10;570.66;0.00;0.00;0.62;;;;;6.60;6.30;;;;;;2272836;61;1994;-83
2021/11/06 05:15:21;239117.00;0.80;413.23;0.00;0.00;0.62;;;;;6.80;4.60;;;;;;2265787;61;1005;-85
2021/11/06 05:17:47;828360.00;2.76;1430.63;98525.00;0.33;171.03;;;;;7.00;4.90;;;;;;2268842;61;1455;-84
2021/11/06 05:20:14;1631860.00;5.44;2893.78;144971.00;0.48;251.14;;;;;7.00;4.40;;;;;;2268953;61;959;-83
2021/11/06 05:22:43;525337.00;1.75;905.46;90795.00;0.30;157.68;;;;;7.10;4.30;;;;;;2268088;61;932;-82
2021/11/06 05:25:10;304953.00;1.02;526.43;0.00;0.00;0.62;;;;;7.00;4.40;;;;;;2264506;61;964;-84
2021/11/06 05:27:37;895021.00;2.98;1547.38;78706.00;0.26;136.80;;;;;7.00;4.40;;;;;;2264439;61;1338;-84
2021/11/06 05:32:33;417143.00;1.39;719.28;0.00;0.00;0.62;;;;;7.30;4.50;;;;;;2269992;61;1384;-82
2021/11/06 05:35:00;597424.00;1.99;1029.77;12608.00;0.04;22.47;;;;;7.70;4.50;;;;;;2263827;61;1936;-84
2021/11/06 05:39:56;302773.00;1.01;522.69;0.00;0.00;0.62;;;;;7.70;3.40;;;;;;2266488;61;1396;-84
2021/11/06 05:42:23;260063.00;0.87;449.26;0.00;0.00;0.62;;;;;8.00;7.20;;;;;;2264709;61;1089;-82
2021/11/06 05:44:50;206880.00;0.69;357.77;0.00;0.00;0.62;;;;;9.00;9.50;;;;;;2264731;61;943;-84
2021/11/06 05:47:18;240704.00;0.80;415.96;0.00;0.00;0.62;;;;;9.80;6.30;;;;;;2264635;61;1202;-82
2021/11/06 05:49:45;859115.00;2.86;1484.42;51966.00;0.17;90.59;;;;;10.10;3.00;;;;;;2264977;61;890;-82
2021/11/06 05:52:12;118391560.00;394.64;67220312.00;171648.00;0.57;297.11;;;;;10.00;1.00;;;;;;2264946;61;1001;-86
2021/11/06 05:54:40;377606.00;1.26;651.31;0.00;0.00;0.62;;;;;9.60;1.00;;;;;;2260819;61;1998;-83
2021/11/06 05:57:08;417693.00;1.39;720.22;30689.00;0.10;53.78;;;;;9.20;1.00;;;;;;2264879;61;1265;-87
2021/11/06 05:59:35;1047022.00;3.49;1815.93;84198.00;0.28;146.29;;;;;9.10;1.00;;;;;;2260927;61;967;-85
2021/11/06 06:02:02;433613.00;1.45;747.60;91214.00;0.30;158.40;;;;;8.40;1.00;;;;;;2264887;61;1026;-80
2021/11/06 06:04:29;281877.00;0.94;486.76;0.00;0.00;0.62;;;;;8.10;2.60;;;;;;2263983;61;917;-82
2021/11/06 06:06:56;389422.00;1.30;671.62;742.00;0.00;1.91;;;;;8.00;1.20;;;;;;2260498;61;1393;-83
2021/11/06 06:09:23;477611.00;1.59;823.29;32644.00;0.11;57.16;;;;;8.20;2.40;;;;;;2257498;61;987;-85
2021/11/06 06:11:51;149814.00;0.50;259.49;0.00;0.00;0.62;;;;;8.40;2.60;;;;;;2257444;61;967;-84
2021/11/06 06:14:19;1277588.00;4.26;2231.15;214973.00;0.72;371.69;;;;;8.50;5.30;;;;;;2259936;61;1915;-84
2021/11/06 06:16:46;119328240.00;397.76;68829936.00;147701.00;0.49;255.85;;;;;8.50;1.00;;;;;;2259822;61;1296;-82
2021/11/06 06:19:13;637226.00;2.12;1098.54;141082.00;0.47;244.44;;;;;8.40;6.60;;;;;;2250232;61;1034;-81
2021/11/06 06:21:40;359463.00;1.20;620.13;5742.00;0.02;10.57;;;;;8.50;1.50;;;;;;2250726;61;935;-85
2021/11/06 06:29:02;338276.00;1.13;583.71;24276.00;0.08;42.67;;;;;7.60;3.10;;;;;;2266321;61;1391;-82
2021/11/06 06:36:26;1865987.00;6.22;3352.68;260198.00;0.87;449.49;;;;;7.80;5.10;;;;;;2415978;40;3696;31
2021/11/06 06:41:21;260148.00;0.87;449.40;20360.00;0.07;35.89;;;;;8.00;1.00;;;;;;2270185;61;1210;-82
2021/11/06 06:43:48;744083.00;2.48;1283.77;29495.00;0.10;51.71;;;;;7.60;3.00;;;;;;2267722;61;989;-84
2021/11/06 06:46:14;2105745.00;7.02;3843.76;217707.00;0.73;376.40;;;;;7.60;2.20;;;;;;2267975;61;1272;-80
2021/11/06 06:53:38;327031.00;1.09;564.38;0.00;0.00;0.62;;;;;7.20;2.80;;;;;;2269878;61;1973;-81
2021/11/06 06:56:05;200670.00;0.67;347.08;0.00;0.00;0.62;;;;;7.20;2.40;;;;;;2268381;61;1326;-83
2021/11/06 06:58:33;163120.00;0.54;282.41;0.00;0.00;0.62;;;;;7.30;7.00;;;;;;2264620;61;1009;-84
2021/11/06 07:01:00;758038.00;2.53;1308.04;32187.00;0.11;56.37;;;;;7.20;3.40;;;;;;2264360;61;950;-82
2021/11/06 07:03:27;1097780.00;3.66;1906.45;97952.00;0.33;170.04;;;;;7.50;6.50;;;;;;2264634;61;941;-83
2021/11/06 07:05:54;279098.00;0.93;481.99;0.00;0.00;0.62;;;;;7.30;2.70;;;;;;2263212;61;957;-84
2021/11/06 07:08:21;529675.00;1.77;912.93;10310.00;0.03;18.49;;;;;7.60;5.80;;;;;;2263685;61;1668;-83
2021/11/06 07:10:49;325263.00;1.08;561.34;0.00;0.00;0.62;;;;;8.30;6.00;;;;;;2260345;61;1001;-82
2021/11/06 07:25:36;253906.00;0.85;438.67;0.00;0.00;0.62;;;;;6.50;4.60;;;;;;2266629;61;1174;-84
2021/11/06 07:28:05;312808.00;1.04;539.94;0.00;0.00;0.62;;;;;6.50;6.10;;;;;;2265227;61;1329;-85
2021/11/06 07:30:32;222981.00;0.74;385.47;0.00;0.00;0.62;;;;;7.20;5.20;;;;;;2264534;61;1014;-85
2021/11/06 07:32:58;310681.00;1.04;536.28;0.00;0.00;0.62;;;;;7.00;4.30;;;;;;2264672;61;947;-82
2021/11/06 07:35:26;217542.00;0.73;376.11;0.00;0.00;0.62;;;;;7.70;5.90;;;;;;2265178;61;2024;-83
2021/11/06 07:37:53;100863.00;0.34;175.06;0.00;0.00;0.62;;;;;8.10;6.90;;;;;;2265016;61;1373;-81
2021/11/06 07:40:21;191032.00;0.64;330.49;0.00;0.00;0.62;;;;;8.80;2.40;;;;;;2265206;61;934;-81
2021/11/06 07:42:49;187045.00;0.62;323.62;0.00;0.00;0.62;;;;;8.90;2.80;;;;;;2261102;61;987;-83
2021/11/06 07:45:19;265056.00;0.88;457.84;0.00;0.00;0.62;;;;;8.40;1.90;;;;;;2261294;61;1024;-82
2021/11/06 07:47:47;263728.00;0.88;455.56;7949.00;0.03;14.40;;;;;8.40;3.10;;;;;;2261201;61;1461;-83
2021/11/06 07:50:15;341187.00;1.14;588.71;0.00;0.00;0.62;;;;;8.60;1.00;;;;;;2259839;61;957;-83
2021/11/06 07:52:42;300340.00;1.00;518.50;0.00;0.00;0.62;;;;;8.50;1.00;;;;;;2260186;61;915;-82
2021/11/06 07:55:10;225103.00;0.75;389.12;0.00;0.00;0.62;;;;;8.90;1.20;;;;;;2253676;61;1919;-85
2021/11/06 08:00:08;113688.00;0.38;197.19;0.00;0.00;0.62;;;;;8.60;3.10;;;;;;2266858;61;1403;-84
2021/11/06 08:17:24;134373.00;0.45;232.87;0.00;0.00;0.62;;;;;7.60;1.90;;;;;;2272526;61;1408;-82
2021/11/06 08:19:51;360926.00;1.20;622.64;21940.00;0.07;38.63;;;;;8.00;2.30;;;;;;2265888;61;953;-83
2021/11/06 08:22:18;322354.00;1.07;556.34;0.00;0.00;0.62;;;;;8.20;1.60;;;;;;2264336;61;1005;-84
2021/11/06 08:24:45;209461.00;0.70;362.21;0.00;0.00;0.62;;;;;8.10;1.00;;;;;;2257628;61;1040;-84
2021/11/06 08:27:12;273145.00;0.91;471.75;0.00;0.00;0.62;;;;;8.80;2.30;;;;;;2264110;61;1440;-84
2021/11/06 08:29:39;280152.00;0.93;483.80;0.00;0.00;0.62;;;;;9.60;3.70;;;;;;2256241;61;950;-84
2021/11/06 08:32:06;215314.00;0.72;372.28;0.00;0.00;0.62;;;;;10.10;1.00;;;;;;2249582;61;929;-84
2021/11/06 08:34:39;283656.00;0.95;489.82;0.00;0.00;0.62;;;;;10.40;1.00;;;;;;2249605;61;1991;-84
2021/11/06 08:37:06;153141.00;0.51;265.22;0.00;0.00;0.62;;;;;9.50;1.00;;;;;;2248019;61;1326;-84
2021/11/06 08:39:36;310253.00;1.03;535.54;0.00;0.00;0.62;;;;;9.00;1.00;;;;;;2241287;61;941;-84
2021/11/06 08:59:49;118644.00;0.40;205.74;0.00;0.00;0.62;;;;;9.10;1.00;;;;;;2262762;61;1431;-85
2021/11/06 09:04:45;58920.00;0.20;102.61;0.00;0.00;0.62;;;;;8.80;1.00;;;;;;2502460;40;3618;31
2021/11/06 09:12:16;182672.00;0.61;316.09;0.00;0.00;0.62;;;;;8.50;2.90;;;;;;2262994;61;1309;-88
2021/11/06 09:19:40;227256.00;0.76;392.83;0.00;0.00;0.62;;;;;8.10;1.20;;;;;;2262669;61;1309;-88
2021/11/06 11:18:45;142810.00;0.48;247.41;0.00;0.00;0.62;;;;;11.70;1.00;;;;;;2459094;40;3728;31
2021/11/06 11:26:09;296871.00;0.99;512.54;0.00;0.00;0.62;;;;;12.20;1.00;;;;;;2263310;61;1325;-88
2021/11/06 11:31:07;191200.00;0.64;330.77;0.00;0.00;0.62;;;;;13.00;1.00;;;;;;2263254;61;1293;-86
2021/11/06 12:18:03;117974344.00;393.25;66511524.00;0.00;0.00;0.62;;;;;11.90;1.00;;;;;;2263132;61;1396;-82
2021/11/06 12:20:31;175185.00;0.58;303.20;0.00;0.00;0.62;;;;;12.00;1.00;;;;;;2254261;61;1005;-84
2021/11/06 12:22:58;102715.00;0.34;178.26;0.00;0.00;0.62;;;;;12.10;1.00;;;;;;2254276;61;1005;-83
2021/11/06 12:25:25;184559.00;0.62;319.34;0.00;0.00;0.62;;;;;11.40;1.00;;;;;;2252934;61;985;-83
2021/11/06 12:27:57;132125.00;0.44;228.99;0.00;0.00;0.62;;;;;11.40;1.00;;;;;;2249593;61;1435;-81
2021/11/06 12:30:26;194129.00;0.65;335.82;0.00;0.00;0.62;;;;;12.00;1.00;;;;;;2249677;61;998;-83
2021/11/06 12:32:54;51316.00;0.17;89.46;0.00;0.00;0.62;;;;;12.30;1.00;;;;;;2245758;61;973;-84
2021/11/06 12:35:25;90024.00;0.30;156.35;0.00;0.00;0.62;;;;;12.70;1.00;;;;;;2252885;61;1907;-83
2021/11/06 12:38:00;161225.00;0.54;279.15;0.00;0.00;0.62;;;;;12.60;1.00;;;;;;2249719;61;1339;-84
2021/11/06 12:40:37;117385.00;0.39;203.57;0.00;0.00;0.62;;;;;12.30;1.00;;;;;;2252740;61;1015;-83
2021/11/06 12:43:15;232273.00;0.77;401.46;0.00;0.00;0.62;;;;;12.10;1.00;;;;;;2255832;61;905;-83
2021/11/06 12:48:14;205973.00;0.69;356.20;0.00;0.00;0.62;;;;;12.20;1.00;;;;;;2266952;61;1354;-83
2021/11/06 12:53:22;439842.00;1.47;758.31;0.00;0.00;0.62;;;;;12.40;1.00;;;;;;2267097;61;1444;-82
2021/11/06 12:55:58;269625.00;0.90;465.70;0.00;0.00;0.62;;;;;12.70;1.00;;;;;;2265248;61;1990;-84
2021/11/06 12:58:25;146566.00;0.49;253.89;0.00;0.00;0.62;;;;;12.80;1.00;;;;;;2260885;61;1390;-81
2021/11/06 13:00:52;412347.00;1.37;711.03;0.00;0.00;0.62;;;;;12.70;1.00;;;;;;2257722;61;1101;-82
2021/11/06 13:03:36;235535.00;0.79;407.07;0.00;0.00;0.62;;;;;12.50;1.00;;;;;;2250996;61;974;-81
2021/11/06 13:06:17;330679.00;1.10;570.65;1750.00;0.01;3.65;;;;;12.80;1.00;;;;;;2250940;61;974;-82
2021/11/06 13:13:53;347348.00;1.16;599.30;0.00;0.00;0.62;;;;;11.60;1.00;;;;;;2267080;61;1393;-81
2021/11/06 13:16:20;556691.00;1.86;959.49;106584.00;0.36;184.94;;;;;11.60;1.00;;;;;;2264980;61;1997;-82
2021/11/06 13:19:12;151631.00;0.51;262.62;0.00;0.00;0.62;;;;;12.30;1.00;;;;;;2256659;61;943;-81
2021/11/06 13:21:43;464902.00;1.55;801.42;91003.00;0.30;158.04;;;;;12.40;1.00;;;;;;2256666;61;1013;-85
2021/11/06 13:24:10;344666.00;1.15;594.69;86465.00;0.29;150.20;;;;;12.80;1.00;;;;;;2252763;61;1033;-80
2021/11/06 13:58:50;1136830.00;3.79;1976.42;72815.00;0.24;126.62;;;;;14.10;1.00;;;;;;2263143;61;895;-87
2021/11/06 14:41:02;115061.00;0.38;199.56;0.00;0.00;0.62;;;;;13.10;1.00;;;;;;2263165;61;899;-88
2021/11/06 14:46:00;123528.00;0.41;214.17;0.00;0.00;0.62;;;;;13.50;1.00;;;;;;2263719;61;1322;-87
2021/11/06 14:48:29;91002.00;0.30;158.04;0.00;0.00;0.62;;;;;13.60;1.00;;;;;;2253259;61;1434;-86
2021/11/06 14:51:03;242990.00;0.81;419.89;0.00;0.00;0.62;;;;;13.70;1.00;;;;;;2253327;61;934;-87
2021/11/06 14:53:31;326305.00;1.09;563.14;10726.00;0.04;19.21;;;;;13.80;1.00;;;;;;2253240;61;902;-87
2021/11/06 15:35:24;168373.00;0.56;291.46;0.00;0.00;0.62;;;;;13.10;1.00;;;;;;2263653;61;1878;-88
2021/11/06 15:40:23;165625.00;0.55;286.73;0.00;0.00;0.62;;;;;12.60;1.00;;;;;;2263433;61;1321;-86
2021/11/06 16:51:54;199634.00;0.67;345.29;0.00;0.00;0.62;;;;;11.30;1.00;;;;;;2465864;40;3699;31
2021/11/06 19:20:08;48843.00;0.16;85.19;0.00;0.00;0.62;;;;;12.60;1.00;;;;;;2263495;61;884;-86
2021/11/06 19:50:12;56667.00;0.19;98.71;0.00;0.00;0.62;;;;;10.20;1.00;;;;;;2263535;61;980;-87
2021/11/06 20:20:18;7138.00;0.02;12.99;0.00;0.00;0.62;;;;;9.10;1.00;;;;;;2259816;61;937;-88
2021/11/06 21:29:57;77783.00;0.26;135.21;0.00;0.00;0.62;;;;;8.80;1.00;;;;;;2263112;61;1294;-87
2021/11/06 21:32:25;211897.00;0.71;366.40;0.00;0.00;0.62;;;;;9.10;1.80;;;;;;2256921;61;936;-89
2021/11/06 21:34:56;62283.00;0.21;108.42;0.00;0.00;0.62;;;;;10.20;1.50;;;;;;2257038;61;1911;-90
2021/11/06 21:39:54;204047.00;0.68;352.89;0.00;0.00;0.62;;;;;9.80;1.00;;;;;;2259172;61;1298;-87
2021/11/06 21:42:25;132927.00;0.44;230.38;20172.00;0.07;35.57;;;;;9.80;1.00;;;;;;2257489;61;375;-90
2021/11/06 21:52:17;1116857.00;3.72;1940.60;110659.00;0.37;191.97;;;;;9.60;1.00;;;;;;2262622;61;1171;-87
2021/11/06 22:19:46;214578.00;0.72;371.01;87420.00;0.29;151.85;;;;;7.80;2.00;;;;;;2263179;61;1305;-88
2021/11/06 22:29:42;56307.00;0.19;98.09;0.00;0.00;0.62;;;;;8.30;4.00;;;;;;2263025;61;1127;-85
2021/11/06 22:37:15;260248.00;0.87;449.57;0.00;0.00;0.62;;;;;9.00;1.00;;;;;;2262935;61;1988;-84
2021/11/06 22:39:42;114722.00;0.38;198.98;0.00;0.00;0.62;;;;;9.20;1.00;;;;;;2256140;61;956;-83
2021/11/06 22:42:09;35479.00;0.12;62.07;0.00;0.00;0.62;;;;;9.30;2.10;;;;;;2256415;61;980;-84
2021/11/06 22:44:37;234448.00;0.78;405.20;0.00;0.00;0.62;;;;;9.90;1.00;;;;;;2249844;61;1022;-84
2021/11/06 22:47:05;423322.00;1.41;729.90;84617.00;0.28;147.01;;;;;9.80;1.00;;;;;;2252291;61;1412;-82
2021/11/06 22:49:32;49823.00;0.17;86.88;0.00;0.00;0.62;;;;;9.60;1.00;;;;;;2246202;61;1094;-82
2021/11/06 22:52:00;122.00;0.00;0.83;0.00;0.00;0.62;;;;;10.00;1.00;;;;;;2246233;61;1002;-83
2021/11/06 22:54:28;231187.00;0.77;399.59;0.00;0.00;0.62;;;;;10.70;1.70;;;;;;2253111;61;1033;-85
2021/11/06 22:56:58;42682.00;0.14;74.53;0.00;0.00;0.62;;;;;11.00;1.00;;;;;;2247397;61;1995;-83
2021/11/06 23:01:53;44097.00;0.15;76.98;0.00;0.00;0.62;;;;;11.30;1.00;;;;;;2267330;61;1417;-82
2021/11/06 23:04:24;264496.00;0.88;456.88;30818.00;0.10;54.00;;;;;11.10;1.00;;;;;;2257202;61;1133;-83
2021/11/06 23:06:52;21707.00;0.07;38.23;0.00;0.00;0.62;;;;;10.80;1.00;;;;;;2257278;61;1318;-82
2021/11/06 23:09:24;56291.00;0.19;98.06;0.00;0.00;0.62;;;;;10.30;1.00;;;;;;2257386;61;932;-83
2021/11/06 23:11:54;315249.00;1.05;544.13;99085.00;0.33;171.99;;;;;10.20;1.00;;;;;;2253952;61;1018;-84
2021/11/06 23:14:27;63318.00;0.21;110.21;0.00;0.00;0.62;;;;;9.30;1.00;;;;;;2257294;61;1000;-83
2021/11/06 23:16:57;66964.00;0.22;116.51;0.00;0.00;0.62;;;;;8.30;1.00;;;;;;2253968;61;1921;-83
2021/11/06 23:19:28;164911.00;0.55;285.50;0.00;0.00;0.62;;;;;8.40;1.00;;;;;;2253205;61;977;-83
2021/11/06 23:21:56;28303.00;0.09;49.65;0.00;0.00;0.62;;;;;8.30;1.00;;;;;;2255655;61;1044;-82
2021/11/06 23:24:25;37345.00;0.12;65.29;0.00;0.00;0.62;;;;;8.40;1.00;;;;;;2261362;61;1039;-84
2021/11/06 23:26:55;0.00;0.00;0.62;0.00;0.00;0.62;;;;;8.20;1.00;;;;;;2254477;61;1357;-82
2021/11/06 23:29:22;45589.00;0.15;79.56;0.00;0.00;0.62;;;;;8.30;1.00;;;;;;2254540;61;1092;-84
2021/11/06 23:31:53;109249.00;0.36;189.53;0.00;0.00;0.62;;;;;7.90;1.00;;;;;;2254470;61;1068;-84
2021/11/06 23:34:21;26479.00;0.09;46.49;0.00;0.00;0.62;;;;;8.10;3.00;;;;;;2254521;61;1013;-84